Weather observations for the past three days for
Currituck, Currituck County Airport
Metric (Imperial)
Date Time (edt) Wind (kph) Vis. (km) Weather Sky Cond. Temperature (ºC) Relative Humidity Wind Chill (°C) Heat Index (°C) Pressure Precipitation (cm)
Air Dwpt 6 hour altimeter (cm) sea level (mb) 1 hr 3 hr 6 hr
Max. Min.
09 14:35 SW 20 G 30 16.09 Fair CLR 24 10.9 44% 25 75.82 0.0
09 14:15 SW 20 G 31 16.09 Fair CLR 23.7 10.7 44% 75.82 0.0
09 13:35 SW 22 G 37 16.09 Partly Cloudy SCT037 SCT043 23.8 13 51% 75.84 0.0
09 13:15 S 22 G 35 16.09 Mostly Cloudy BKN035 BKN041 BKN047 23.5 14.9 59% 75.84 0.0
09 12:55 SW 17 G 28 16.09 Overcast BKN030 OVC037 22.9 15.7 64% 75.84 0.0
09 12:35 S 15 16.09 Mostly Cloudy BKN030 BKN039 22.3 15.8 67% 75.87 0.0
09 12:15 S 11 16.09 Mostly Cloudy SCT032 BKN041 BKN047 22.2 15.9 68% 75.9 0.0
09 11:55 S 13 16.09 Mostly Cloudy BKN032 BKN039 BKN045 22.1 15.2 65% 75.95 0.0
09 11:35 S 15 16.09 Overcast BKN032 BKN041 OVC048 21.8 15 65% 76 0.0
09 11:15 S 11 G 26 16.09 Mostly Cloudy SCT032 BKN040 BKN050 22 14.7 63% 76.02 0.0
09 10:35 S 20 G 43 16.09 Mostly Cloudy BKN034 21.9 14.4 63% 76.02 0.0
09 10:15 SE 24 G 46 16.09 Mostly Cloudy BKN034 BKN040 BKN050 21.4 14.3 64% 76.02 0.0
09 09:55 SE 26 G 37 16.09 Mostly Cloudy SCT040 BKN047 BKN060 21.1 14.4 66% 76 0.0
09 09:15 S 19 G 31 16.09 Mostly Cloudy BKN043 20.2 15.1 73% 76.05 0.0
09 08:55 SE 19 G 26 16.09 Overcast BKN041 OVC046 19.2 15.4 79% 76.05 0.0
09 08:35 S 9 16.09 Overcast BKN041 BKN047 OVC080 18.6 15.7 83% 76.05 0.0
09 08:15 Calm 16.09 Mostly Cloudy BKN045 BKN055 17.5 15.3 87% 76.07 0.0
09 07:55 Calm 16.09 Overcast BKN043 OVC055 16.7 15 31.4 -9 90% 76.05 0.0 0.05
09 07:35 Calm 16.09 Overcast BKN039 BKN050 OVC065 15.7 14.8 94% 76.07 0.0
09 07:15 Calm 16.09 Light Rain BKN039 BKN050 OVC085 14.7 14 96% 76.07 0.0
09 06:55 Calm 16.09 Overcast SCT039 OVC050 14.1 13.5 96% 76.1 0.0
09 06:35 Calm 16.09 Overcast BKN035 BKN042 OVC080 13.7 13.1 96% 76.1 0.0
09 06:15 Calm 16.09 Overcast SCT028 BKN033 OVC043 13.3 12.6 96% 76.1 0.0
09 05:35 Calm 11.27 Rain SCT042 BKN055 OVC075 12.7 11.6 93% 76.1 0.0 0.03
09 05:15 Calm 16.09 Mostly Cloudy SCT038 BKN049 BKN075 12.3 11.1 92% 76.1 0.0
09 04:55 Calm 16.09 Partly Cloudy SCT038 SCT049 SCT065 12 11.1 94% 76.12 0.0
09 04:35 Calm 16.09 Fair CLR 11.8 10.7 93% 76.12 0.0
09 04:15 Calm 16.09 Fair CLR 12.3 11.2 93% 76.12 0.0
09 03:55 Calm 16.09 Fair CLR 12.5 11.1 91% 76.12 0.0
09 03:35 Calm 16.09 Fair CLR 12.4 11 91% 76.12 0.0
09 03:15 Calm 16.09 Fair CLR 12.6 10.9 89% 76.15 0.0
09 02:55 Calm 16.09 Fair CLR 12.7 10.8 88% 76.15 0.0
09 02:35 Calm 16.09 Fair CLR 12.9 10.6 86% 76.15 0.0
09 02:15 Calm 16.09 Fair CLR 13.1 10.7 86% 76.17 0.0
09 01:55 Calm 16.09 Fair CLR 13 10.6 31.4 -9 85% 76.2 0.0
09 01:35 Calm 16.09 Fair CLR 13.2 10.6 84% 76.2 0.0
09 01:15 Calm 16.09 Fair CLR 13.5 10.6 83% 76.23 0.0
09 00:55 Calm 16.09 Fair CLR 13.1 10.5 84% 76.23 0.0
09 00:35 Calm 16.09 Fair CLR 12.8 10.3 85% 76.2 0.0
09 00:15 Calm 16.09 Fair CLR 12.9 10.1 83% 76.2 0.0
08 23:55 Calm 16.09 Fair CLR 13.2 10 81% 76.23 0.0
08 23:35 Calm 16.09 Fair CLR 13.9 10.1 78% 76.25 0.0
08 23:15 S 7 16.09 Fair CLR 14 9.8 76% 76.28 0.0
08 22:55 S 6 16.09 Fair CLR 14 9.5 75% 76.28 0.0
08 22:35 S 6 16.09 Fair CLR 14.1 9.1 72% 76.28 0.0
08 22:15 S 6 16.09 Fair CLR 14.2 8.7 70% 76.28 0.0
08 21:55 S 6 16.09 Fair CLR 14.3 8.4 68% 76.25 0.0
08 21:35 SE 7 16.09 Fair CLR 14.2 7.9 66% 76.23 0.0
08 21:15 SE 9 16.09 Fair CLR 14.2 7 62% 76.23 0.0
08 20:55 SE 7 16.09 Fair CLR 14.1 6.6 61% 76.2 0.0
08 20:35 SE 6 16.09 Fair CLR 14.3 6.4 59% 76.2 0.0
08 20:15 S 6 16.09 Fair CLR 14.6 6.5 59% 76.2 0.0
08 19:55 SE 7 16.09 Fair CLR 15.1 6.5 31.4 -9 57% 76.17 0.0
08 19:35 SE 7 16.09 Fair CLR 15.5 7.1 58% 76.17 0.0
08 19:15 SE 6 16.09 Fair CLR 15.8 7.3 57% 76.15 0.0
08 18:55 SE 9 16.09 Fair CLR 16.5 6.9 53% 76.15 0.0
08 18:35 SE 9 16.09 Fair CLR 17.1 7.1 52% 76.15 0.0
08 18:15 SE 11 16.09 Fair CLR 17.3 6.8 50% 76.15 0.0
08 17:55 E 9 16.09 Fair CLR 17.7 6.7 49% 76.17 0.0
08 17:35 SE 9 16.09 Fair CLR 18 7.3 50% 76.17 0.0
08 17:15 E 11 16.09 Fair CLR 18.2 7.2 49% 76.15 0.0
08 16:55 SE 7 16.09 Fair CLR 18 6.7 48% 76.15 0.0
08 16:35 E 11 16.09 Fair CLR 17.7 6.7 49% 76.17 0.0
08 16:15 E 11 16.09 Fair CLR 17.5 5.9 47% 76.17 0.0
08 15:55 E 13 16.09 Fair CLR 17.4 6.8 50% 76.2 0.0
08 15:35 E 9 16.09 Fair CLR 17.2 6.7 50% 76.2 0.0
08 15:15 E 13 16.09 Fair CLR 17.2 6.7 50% 76.23 0.0
08 14:55 E 9 16.09 Fair CLR 17 6.5 50% 76.25 0.0
08 14:35 E 9 16.09 Fair CLR 16.7 6.6 52% 76.28 0.0
08 14:15 E 9 16.09 Fair CLR 16.7 6.3 50% 76.28 0.0
08 13:55 NE 9 16.09 Fair CLR 16.8 5.7 31.4 -9 48% 76.28 0.0
08 13:35 NE 9 16.09 Fair CLR 16.5 5.1 47% 76.3 0.0
08 13:15 NE 11 16.09 Fair CLR 16.5 5.3 48% 76.3 0.0
08 12:55 NE 13 16.09 Fair CLR 16.5 5.7 49% 76.33 0.0
08 12:35 NE 15 16.09 Fair CLR 16.4 6.2 51% 76.33 0.0
08 12:15 NE 15 16.09 Fair CLR 16.4 6.5 52% 76.35 0.0
08 11:55 NE 15 G 26 16.09 Fair CLR 16.7 6 49% 76.35 0.0
08 11:35 N 19 16.09 Fair CLR 16.8 3.8 42% 76.35 0.0
08 11:15 NE 17 16.09 Fair CLR 16.9 3.7 42% 76.35 0.0
08 10:55 NE 20 G 26 16.09 Fair CLR 16.6 5.7 49% 76.33 0.0
08 10:35 N 17 16.09 Fair CLR 16.5 8.1 58% 76.33 0.0
08 10:15 N 20 16.09 Fair CLR 16.4 8.5 60% 76.3 0.0
08 09:55 NE 19 G 30 16.09 Fair CLR 16 9.2 64% 76.28 0.0
08 09:35 N 19 G 26 16.09 Fair CLR 15.2 9.9 71% 76.28 0.0
08 09:15 N 13 16.09 Fair CLR 14.6 10 74% 76.28 0.0
08 08:55 N 15 16.09 Fair CLR 13.6 9.9 79% 76.25 0.0
08 08:35 N 9 16.09 Fair CLR 12.6 10.2 85% 76.25 0.0
08 08:15 N 9 16.09 Fair CLR 11.6 10 90% 76.23 0.0
08 07:55 NW 6 16.09 Fair CLR 10.7 9.4 31.4 -9 92% 76.2 0.0
08 07:35 NW 6 16.09 Fair CLR 9.9 9 94% 76.2 0.0
08 07:15 Calm 16.09 Fair CLR 9.4 8.6 95% 76.17 0.0
08 06:55 W 6 16.09 Fair CLR 8.9 8.2 95% 76.15 0.0
08 06:35 Calm 16.09 Fair CLR 8.4 7.8 96% 76.12 0.0
08 06:15 Calm 16.09 Fair CLR 8.3 7.7 96% 76.12 0.0
08 05:55 Calm 16.09 Fair CLR 8.4 7.9 97% 76.1 0.0
08 05:35 Calm 16.09 Partly Cloudy SCT075 8.5 8.1 97% 76.07 0.0
08 05:15 Calm 16.09 Fair CLR 8.5 8.1 97% 76.07 0.0
08 04:55 W 6 11.27 Fair CLR 8.7 8.3 97% 76.05 0.0
08 04:35 W 6 11.27 Partly Cloudy SCT001 8.9 8.6 98% 76.05 0.0
08 04:15 Calm 4.83 Fog/Mist OVC001 9.3 8.9 97% 76.02 0.0
08 03:55 Calm 2.41 Fog/Mist OVC003 9.5 9 97% 76.02 0.0
08 03:35 W 6 8.05 Fog/Mist OVC003 9.7 9.3 97% 76 0.0
08 03:15 W 6 4.83 Fog/Mist OVC003 9.9 9.5 97% 76.02 0.0
08 02:55 Calm 2.41 Fog/Mist OVC003 9.7 9.4 98% 76 0.0
08 02:35 NW 7 2.01 Fog/Mist OVC003 9.5 9 97% 9 75.95 0.0
08 02:15 Calm 16.09 Partly Cloudy SCT003 9.2 8.6 96% 75.97 0.0
08 01:55 W 6 16.09 Fair CLR 9.3 8.7 31.4 -9 96% 75.95 0.0
08 01:35 Calm 16.09 Partly Cloudy SCT120 9.7 9 95% 75.95 0.0
08 01:15 Calm 16.09 Mostly Cloudy BKN120 9.8 9.1 95% 75.95 0.0
08 00:55 NW 6 16.09 Partly Cloudy SCT120 10 9.1 94% 75.95 0.0
08 00:35 NW 6 16.09 Mostly Cloudy BKN120 10.1 9.3 95% 75.92 0.0
08 00:15 NW 7 16.09 Partly Cloudy SCT120 10.2 9.5 95% 75.92 0.0
07 23:55 W 6 16.09 Fair CLR 10.5 9.7 95% 75.9 0.0
07 23:35 Calm 16.09 Partly Cloudy SCT013 SCT090 SCT120 11 9.9 93% 75.87 0.0
07 23:15 Calm 16.09 Overcast OVC090 11.6 9.7 88% 75.9 0.0
07 22:55 N 6 16.09 Overcast SCT065 SCT075 OVC090 11.7 9.6 87% 75.87 0.0
07 22:35 N 13 16.09 Overcast OVC070 11.8 9.7 87% 75.84 0.0
07 22:15 N 7 16.09 Overcast SCT014 OVC070 11.8 9.5 86% 75.87 0.0
07 21:55 N 7 16.09 Overcast BKN014 OVC060 11.8 9.6 87% 75.87 0.0
07 21:35 N 6 16.09 Overcast BKN014 OVC055 11.8 9.4 85% 75.87 0.0
07 21:15 N 11 16.09 Overcast SCT014 OVC049 11.8 9 83% 75.87 0.0
07 20:55 NE 11 16.09 Overcast SCT015 OVC047 11.7 8.6 81% 75.79 0.0
07 20:35 NE 15 16.09 Overcast SCT041 OVC047 11.7 8.8 83% 75.77 0.0
07 20:15 NE 9 16.09 Overcast OVC038 11.6 9 84% 75.77 0.0
07 19:55 NE 11 16.09 Overcast OVC034 11.5 8.7 31.4 -9 83% 75.77 0.0 0.2
07 19:35 NE 15 16.09 Overcast OVC032 11.3 8.2 81% 75.79 0.0
07 19:15 N 13 G 30 16.09 Overcast OVC030 11.2 7.8 80% 75.79 0.0
07 18:55 N 20 G 33 16.09 Light Drizzle OVC030 11.2 8.2 82% 75.77 0.0
07 18:35 N 22 G 35 16.09 Overcast SCT017 OVC030 11.3 8.7 84% 75.74 0.0
07 18:15 N 19 G 39 16.09 Light Drizzle SCT015 OVC028 11.3 8.9 85% 75.74 0.0
07 17:55 NE 17 8.05 Rain SCT013 BKN026 OVC031 11.2 9.3 88% 75.72 0.0 0.18
07 17:35 NE 20 G 39 4.83 Heavy Rain SCT013 BKN024 OVC031 11.3 9.1 86% 75.72 0.0 0.1
07 17:15 N 19 G 33 16.09 Rain SCT010 BKN015 OVC023 11.5 9.9 90% 75.74 0.0
07 16:55 N 15 8.05 Light Rain BKN013 OVC023 11.5 10 91% 75.72 0.0 0.03
07 16:35 N 13 G 28 6.44 Light Rain BKN013 OVC023 11.5 9.5 88% 75.72 0.0
07 16:15 NE 20 G 33 16.09 Overcast OVC013 11.5 9.5 88% 75.72 0.0
07 15:55 NE 20 16.09 Light Drizzle OVC011 11.3 9.6 89% 75.67 0.0 0.03
07 15:35 NE 19 G 33 16.09 Light Drizzle OVC011 11.6 9.9 89% 75.69 0.0 0.03
07 15:15 NE 22 G 39 16.09 Drizzle BKN011 BKN017 OVC023 11.6 9.8 89% 75.69 0.0
07 14:55 NE 19 G 31 16.09 Light Rain OVC009 11.9 10.3 90% 75.72 0.0
07 14:35 NE 19 G 30 16.09 Overcast OVC007 12 10.9 93% 75.74 0.0
07 14:15 NE 20 G 30 16.09 Light Drizzle OVC009 11.7 10.6 93% 75.74 0.0
07 13:55 NE 24 G 33 8.05 Light Rain BKN009 OVC030 11.5 10.5 31.4 -9 94% 75.77 0.0 0.28 2.77
07 13:35 N 20 11.27 Light Rain OVC007 11.7 10.6 93% 75.87 0.0 0.18
07 13:15 NE 19 G 28 8.05 Rain OVC007 11.8 10.7 93% 75.84 0.0 0.08
07 12:55 NE 20 G 30 8.05 Rain BKN009 BKN034 OVC055 11.9 10.6 92% 75.87 0.0 0.2
07 12:35 NE 26 G 35 11.27 Light Rain BKN009 BKN039 OVC090 11.8 10.4 91% 75.84 0.0 0.1
07 12:15 NE 26 G 35 11.27 Light Rain OVC007 12.3 11.2 93% 75.87 0.0 0.05
07 11:55 N 31 G 37 4.02 Heavy Rain OVC007 12.7 11.7 94% 75.87 0.0 0.38
07 11:35 NE 33 G 43 4.83 Rain and Breezy OVC007 13 12.1 94% 75.82 0.0 0.15
07 11:15 N 26 G 35 11.27 Light Rain OVC007 13.2 12.2 94% 75.84 0.0 0.03
07 10:55 NE 26 G 39 11.27 Light Rain OVC005 13.7 12.8 94% 75.82 0.0 0.3 1.91
07 10:35 NE 17 G 30 8.05 Light Rain OVC005 14.4 13.5 94% 75.84 0.0 0.23
07 10:15 NE 19 G 31 6.44 Rain OVC005 15.7 14.9 95% 75.82 0.0 0.15
07 09:55 N 17 G 26 4.02 Heavy Rain BKN005 OVC011 16.5 15.6 94% 75.82 0.0 1.3
07 09:35 N 26 G 35 4.83 Heavy Rain BKN005 OVC015 18.2 17.3 95% 75.79 0.0 0.74
07 09:15 Calm 6.44 Rain OVC007 19.2 18.5 96% 75.77 0.0 0.15
07 08:55 W 6 8.05 Heavy Rain OVC009 19.2 18.5 96% 75.77 0.0 0.3
07 08:35 SW 7 6.44 Heavy Rain BKN009 OVC012 19.1 18.4 96% 75.79 0.0 0.18
07 08:15 Calm 11.27 Rain OVC009 19 18.2 95% 75.79 0.0 0.03
07 07:55 Calm 11.27 Rain OVC007 19 18.1 31.4 -9 95% 75.79 0.0 0.13 0.23
07 07:35 SW 7 11.27 Rain BKN009 BKN012 OVC110 18.9 18 95% 75.79 0.0 0.08
07 07:15 SW 7 11.27 Light Rain SCT009 BKN090 OVC110 18.8 18 95% 75.79 0.0 0.03
07 06:55 SW 7 8.05 Light Rain SCT011 BKN050 OVC090 18.8 17.8 94% 75.77 0.0 0.1
07 06:35 SW 11 11.27 Rain BKN011 BKN050 OVC110 19 17.6 92% 75.79 0.0 0.03
07 06:15 SW 9 16.09 Rain BKN015 BKN047 OVC070 19.1 17.5 91% 75.74 0.0
07 05:55 SW 11 16.09 Light Drizzle SCT049 OVC060 19.2 17.4 89% 75.77 0.0
07 05:35 SW 11 16.09 Mostly Cloudy BKN060 BKN070 19.4 17.2 87% 75.74 0.0
07 05:15 SW 11 16.09 Mostly Cloudy SCT070 BKN110 19.5 17.1 86% 75.74 0.0
07 04:55 SW 13 16.09 Mostly Cloudy SCT070 BKN110 19.5 17 86% 75.79 0.0
07 04:35 SW 15 16.09 Mostly Cloudy SCT080 BKN110 19.7 17 85% 75.79 0.0
07 04:15 SW 15 16.09 Partly Cloudy SCT090 SCT120 19.9 17 83% 75.79 0.0
07 03:55 SW 13 16.09 Partly Cloudy SCT100 20.1 16.8 81% 75.82 0.0
07 03:15 W 11 16.09 Partly Cloudy SCT041 SCT055 SCT080 20.4 16.7 79% 75.84 0.0
07 02:55 S 11 16.09 Rain SCT085 BKN120 21.1 16.2 74% 75.72 0.0
07 02:35 S 7 16.09 Mostly Cloudy BKN095 21.1 16.2 74% 75.82 0.0
07 02:15 SW 13 16.09 Mostly Cloudy BKN095 BKN120 21 16.2 74% 75.87 0.0
07 01:55 SW 11 16.09 Light Drizzle SCT120 21.3 16.2 31.4 -9 73% 75.87 0.0
07 01:35 SW 13 16.09 Partly Cloudy SCT120 21.5 16 71% 75.87 0.0
07 01:15 SW 13 16.09 Fair CLR 21.5 15.8 70% 75.87 0.0
07 00:55 SW 13 16.09 Fair CLR 21.6 15.6 69% 75.87 0.0
07 00:35 SW 13 16.09 Fair CLR 21.7 15.3 67% 75.9 0.0
07 00:15 SW 11 16.09 Fair CLR 21.7 15 66% 75.87 0.0
06 23:55 SW 13 16.09 Fair CLR 21.6 14.6 65% 75.87 0.0
06 23:15 S 9 16.09 Fair CLR 22 14.1 61% 75.87 0.0
06 22:55 S 11 16.09 Fair CLR 22.2 14 60% 75.9 0.0
06 22:35 S 13 16.09 Fair CLR 22.3 14.2 60% 75.87 0.0
06 22:15 S 13 16.09 Fair CLR 22.5 14.7 61% 75.87 0.0
06 21:55 SW 13 16.09 Fair CLR 22.7 15.2 63% 75.9 0.0
06 21:35 S 13 16.09 Partly Cloudy SCT080 22.9 15.7 64% 75.9 0.0
06 21:15 SW 13 16.09 Partly Cloudy SCT080 23.1 16.1 65% 75.9 0.0
06 20:55 SW 13 16.09 Fair CLR 23.2 16.5 66% 75.87 0.0
06 20:35 SW 11 16.09 Fair CLR 23.6 16.6 65% 75.87 0.0
06 20:15 SW 13 16.09 Partly Cloudy SCT080 23.9 16.9 65% 25 75.84 0.0
06 19:55 S 15 G 33 16.09 Overcast SCT065 OVC090 24 17.2 31.4 -9 66% 25 75.84 0.0
06 19:35 S 15 16.09 Mostly Cloudy SCT075 BKN100 24.1 17.3 66% 25 75.84 0.0
06 18:55 S 15 16.09 Fair CLR 24.6 17.5 65% 26 75.82 0.0
06 18:35 S 15 16.09 Partly Cloudy SCT120 24.8 17.5 64% 26 75.82 0.0
06 18:15 S 13 16.09 Partly Cloudy SCT120 25.2 17.5 62% 26 75.82 0.0
06 17:35 S 13 16.09 Fair CLR 26.2 16.3 55% 27 75.79 0.0
06 17:15 S 13 16.09 Partly Cloudy SCT065 26.5 16 53% 27 75.84 0.0
06 16:55 SW 17 G 30 16.09 Partly Cloudy SCT065 26.7 16.1 52% 27 75.87 0.0
06 16:35 S 13 16.09 Partly Cloudy SCT085 SCT110 26.3 16.1 54% 27 75.9 0.0
06 16:15 S 15 16.09 Mostly Cloudy SCT085 BKN110 26.2 16 53% 27 75.9 0.0
06 15:55 SW 15 16.09 Mostly Cloudy SCT085 BKN120 26.2 16 53% 27 75.92 0.0
06 15:35 S 15 G 28 16.09 Partly Cloudy SCT100 SCT120 26 15.8 53% 27 75.92 0.0
06 15:15 S 15 G 30 16.09 Mostly Cloudy SCT100 BKN120 26.1 15.7 53% 27 75.95 0.0
06 14:55 SW 17 G 26 16.09 Partly Cloudy SCT120 26.2 15.9 53% 27 75.95 0.0
Date Time (edt) Wind (kph) Vis. (km) Weather Sky Cond. Air Dwpt Max. Min. Relative Humidity Wind Chill (°C) Heat Index (°C) altimeter (cm) sea level (mb) 1 hr 3 hr 6 hr
6 hour
Temperature (ºC) Pressure Precipitation (cm)